Yasuj, Iran
Current Conditions -  °F | °C
As of 11:00 AM on Sunday 23 Nov 2014 (Local Time) from OISY Reporting Station
Broken Clouds Broken Clouds  
Wind Chill: 55°   Ceiling: 9000
Heat Index: 55°   Visibility: 5mi
Dew Point: 46°   Wind: 9mph
Humidity: 72%   Direction: 100°E
Pressure: 30.18"   Gusts: NA
Location:  30.67°N, 51.58°E
Report Text: OISY 230800Z 10008KT 8000 SCT040 BKN090 13/08 Q1022
Loading
Personal Weather Stations






























Interactive Weather Map New forecast layout! Learn more

10-Day Weather Forecast

Advertisements
Track Severe Weather on mobile